Time;durP1;ratioP1;P1;durP2;ratioP2;P2;SDS_P1;SDS_P2;PMS_P1;PMS_P2;Temp;Humidity;BMP_temperature;BMP_pressure;BME280_temperature;BME280_humidity;BME280_pressure;Samples;Min_cycle;Max_cycle;Signal;HPM_P1;HPM_P2
2023/05/30 00:01:58;;;;;;;;;;;;;;;;;;5053003;28;19912;-40
2023/05/30 00:04:24;;;;;;;;;;;;;;;;;;5053007;28;19959;-39
2023/05/30 00:06:50;;;;;;;;;;;;;;;;;;5052910;28;19950;-39
2023/05/30 00:09:16;;;;;;;;;;;;;;;;;;5052880;28;19909;-38
2023/05/30 00:11:43;;;;;;;;;;;;;;;;;;5053037;28;19909;-36
2023/05/30 00:14:09;;;;;;;;;;;;;;;;;;5052907;28;19909;-41
2023/05/30 00:16:35;;;;;;;;;;;;;;;;;;5052619;28;19916;-40
2023/05/30 00:19:04;;;;;;;;;;;;;;;;;;5052899;28;19909;-37
2023/05/30 00:21:31;;;;;;;;;;;;;;;;;;5053012;28;20015;-38
2023/05/30 00:23:57;;;;;;;;;;;;;;;;;;5052889;28;19995;-39
2023/05/30 00:26:23;;;;;;;;;;;;;;;;;;5052746;28;20313;-38
2023/05/30 00:28:49;;;;;;;;;;;;;;;;;;5052580;28;19920;-39
2023/05/30 00:31:14;;;;;;;;;;;;;;;;;;5052614;28;20376;-37
2023/05/30 00:33:40;;;;;;;;;;;;;;;;;;5052645;28;20011;-36
2023/05/30 00:36:06;;;;;;;;;;;;;;;;;;5052402;28;19916;-38
2023/05/30 00:38:32;;;;;;;;;;;;;;;;;;5052363;28;20003;-38
2023/05/30 00:40:58;;;;;;;;;;;;;;;;;;5052181;28;19925;-36
2023/05/30 00:43:24;;;;;;;;;;;;;;;;;;5052606;28;19909;-38
2023/05/30 00:45:50;;;;;;;;;;;;;;;;;;5052446;28;19924;-35
2023/05/30 00:48:16;;;;;;;;;;;;;;;;;;5052600;28;19909;-39
2023/05/30 00:50:42;;;;;;;;;;;;;;;;;;5052280;28;19923;-39
2023/05/30 00:53:08;;;;;;;;;;;;;;;;;;5052271;28;20255;-39
2023/05/30 00:55:33;;;;;;;;;;;;;;;;;;5053435;28;19912;-37
2023/05/30 00:57:59;;;;;;;;;;;;;;;;;;5058611;28;20369;-37
2023/05/30 01:00:26;;;;;;;;;;;;;;;;;;5061208;28;19909;-33
2023/05/30 01:02:56;;;;;;;;;;;;;;;;;;5052015;28;20258;-39
2023/05/30 01:05:24;;;;;;;;;;;;;;;;;;5050899;28;19905;-39
2023/05/30 01:07:51;;;;;;;;;;;;;;;;;;5051787;28;19970;-40
2023/05/30 01:10:17;;;;;;;;;;;;;;;;;;5052056;28;19963;-37
2023/05/30 01:12:42;;;;;;;;;;;;;;;;;;5052011;28;20358;-33
2023/05/30 01:15:08;;;;;;;;;;;;;;;;;;5052046;28;19916;-37
2023/05/30 01:17:34;;;;;;;;;;;;;;;;;;5051877;28;19962;-43
2023/05/30 01:20:05;;;;;;;;;;;;;;;;;;5051907;28;19913;-38
2023/05/30 01:22:32;;;;;;;;;;;;;;;;;;5052081;28;20369;-40
2023/05/30 01:24:58;;;;;;;;;;;;;;;;;;5051897;28;19909;-40
2023/05/30 01:27:26;;;;;;;;;;;;;;;;;;5051923;28;19920;-39
2023/05/30 01:29:52;;;;;;;;;;;;;;;;;;5051779;28;19996;-35
2023/05/30 01:32:18;;;;;;;;;;;;;;;;;;5051892;28;20019;-40
2023/05/30 01:34:44;;;;;;;;;;;;;;;;;;5051905;28;20274;-40
2023/05/30 01:37:10;;;;;;;;;;;;;;;;;;5051935;28;20001;-37
2023/05/30 01:39:35;;;;;;;;;;;;;;;;;;5051767;28;19917;-37
2023/05/30 01:42:01;;;;;;;;;;;;;;;;;;5051682;28;19963;-37
2023/05/30 01:44:27;;;;;;;;;;;;;;;;;;5052119;28;19948;-39
2023/05/30 01:46:53;;;;;;;;;;;;;;;;;;5051795;28;19913;-39
2023/05/30 01:49:19;;;;;;;;;;;;;;;;;;5051852;28;19996;-38
2023/05/30 01:51:45;;;;;;;;;;;;;;;;;;5051750;28;20305;-41
2023/05/30 01:54:11;;;;;;;;;;;;;;;;;;5051618;28;20357;-36
2023/05/30 01:56:37;;;;;;;;;;;;;;;;;;5051606;28;19908;-36
2023/05/30 01:59:03;;;;;;;;;;;;;;;;;;5051863;28;19909;-37
2023/05/30 02:01:29;;;;;;;;;;;;;;;;;;5051737;28;19934;-36
2023/05/30 02:03:55;;;;;;;;;;;;;;;;;;5051567;28;19915;-39
2023/05/30 02:06:21;;;;;;;;;;;;;;;;;;5051642;28;20003;-38
2023/05/30 02:08:47;;;;;;;;;;;;;;;;;;5051990;28;20027;-39
2023/05/30 02:11:13;;;;;;;;;;;;;;;;;;5051737;28;19998;-38
2023/05/30 02:13:38;;;;;;;;;;;;;;;;;;5055018;28;20269;-38
2023/05/30 02:16:05;;;;;;;;;;;;;;;;;;5055313;28;19909;-39
2023/05/30 02:18:31;;;;;;;;;;;;;;;;;;5055023;28;19912;-36
2023/05/30 02:20:57;;;;;;;;;;;;;;;;;;5055138;28;20278;-39
2023/05/30 02:23:23;;;;;;;;;;;;;;;;;;5054908;28;20007;-40
2023/05/30 02:25:49;;;;;;;;;;;;;;;;;;5054795;28;19908;-38
2023/05/30 02:28:15;;;;;;;;;;;;;;;;;;5054953;28;19974;-41
2023/05/30 02:30:41;;;;;;;;;;;;;;;;;;5054894;28;19944;-37
2023/05/30 02:33:07;;;;;;;;;;;;;;;;;;5054727;28;20258;-38
2023/05/30 02:35:33;;;;;;;;;;;;;;;;;;5054524;28;19912;-40
2023/05/30 02:37:59;;;;;;;;;;;;;;;;;;5054544;28;20285;-35
2023/05/30 02:40:24;;;;;;;;;;;;;;;;;;5054498;28;19996;-39
2023/05/30 02:42:50;;;;;;;;;;;;;;;;;;5054528;28;19952;-39
2023/05/30 02:45:16;;;;;;;;;;;;;;;;;;5054506;28;19963;-36
2023/05/30 02:47:42;;;;;;;;;;;;;;;;;;5054295;28;19913;-38
2023/05/30 02:50:08;;;;;;;;;;;;;;;;;;5053286;28;20007;-39
2023/05/30 02:52:34;;;;;;;;;;;;;;;;;;5054496;28;20346;-39
2023/05/30 02:55:00;;;;;;;;;;;;;;;;;;5054460;28;19967;-38
2023/05/30 02:57:26;;;;;;;;;;;;;;;;;;5054712;28;20068;-36
2023/05/30 02:59:52;;;;;;;;;;;;;;;;;;5054249;28;20007;-38
2023/05/30 03:02:18;;;;;;;;;;;;;;;;;;5054472;28;19908;-36
2023/05/30 03:04:46;;;;;;;;;;;;;;;;;;5054178;28;19909;-36
2023/05/30 03:07:12;;;;;;;;;;;;;;;;;;5053941;28;19919;-36
2023/05/30 03:09:38;;;;;;;;;;;;;;;;;;5053905;28;19908;-35
2023/05/30 03:12:05;;;;;;;;;;;;;;;;;;5054004;28;19932;-38
2023/05/30 03:14:31;;;;;;;;;;;;;;;;;;5054001;28;19913;-40
2023/05/30 03:16:57;;;;;;;;;;;;;;;;;;5054021;28;19923;-40
2023/05/30 03:19:22;;;;;;;;;;;;;;;;;;5053835;28;19991;-37
2023/05/30 03:21:49;;;;;;;;;;;;;;;;;;5053848;28;19913;-40
2023/05/30 03:24:15;;;;;;;;;;;;;;;;;;5053440;28;19915;-33
2023/05/30 03:26:41;;;;;;;;;;;;;;;;;;5053577;28;20007;-37
2023/05/30 03:29:07;;;;;;;;;;;;;;;;;;5053700;28;19916;-39
2023/05/30 03:31:33;;;;;;;;;;;;;;;;;;5053744;28;20374;-37
2023/05/30 03:33:59;;;;;;;;;;;;;;;;;;5053585;28;19916;-38
2023/05/30 03:36:25;;;;;;;;;;;;;;;;;;5053660;28;19909;-38
2023/05/30 03:38:51;;;;;;;;;;;;;;;;;;5053676;28;19963;-38
2023/05/30 03:41:17;;;;;;;;;;;;;;;;;;5053423;28;20362;-38
2023/05/30 03:43:43;;;;;;;;;;;;;;;;;;5053371;28;19999;-38
2023/05/30 03:46:09;;;;;;;;;;;;;;;;;;5052901;28;19917;-39
2023/05/30 03:48:35;;;;;;;;;;;;;;;;;;5051853;28;19919;-39
2023/05/30 03:51:01;;;;;;;;;;;;;;;;;;5052668;28;19917;-36
2023/05/30 03:53:27;;;;;;;;;;;;;;;;;;5053430;28;19917;-38
2023/05/30 03:55:53;;;;;;;;;;;;;;;;;;5052706;28;19920;-36
2023/05/30 03:58:18;;;;;;;;;;;;;;;;;;5052559;28;19912;-40
2023/05/30 04:00:44;;;;;;;;;;;;;;;;;;5051986;28;19927;-36
2023/05/30 04:03:11;;;;;;;;;;;;;;;;;;5052587;28;19920;-38
2023/05/30 04:05:37;;;;;;;;;;;;;;;;;;5052405;28;20452;-41
2023/05/30 04:08:02;;;;;;;;;;;;;;;;;;5052895;28;20015;-39
2023/05/30 04:10:28;;;;;;;;;;;;;;;;;;5052981;28;20353;-38
2023/05/30 04:12:54;;;;;;;;;;;;;;;;;;5051963;28;19912;-40
2023/05/30 04:15:20;;;;;;;;;;;;;;;;;;5052600;28;19932;-37
2023/05/30 04:17:46;;;;;;;;;;;;;;;;;;5052190;28;19921;-40
2023/05/30 04:20:17;;;;;;;;;;;;;;;;;;5052335;28;20341;-36
2023/05/30 04:22:42;;;;;;;;;;;;;;;;;;5052294;28;19913;-39
2023/05/30 04:25:08;;;;;;;;;;;;;;;;;;5052945;28;19908;-39
2023/05/30 04:27:35;;;;;;;;;;;;;;;;;;5052240;28;19943;-38
2023/05/30 04:30:03;;;;;;;;;;;;;;;;;;5039221;28;19916;-37
2023/05/30 04:32:33;;;;;;;;;;;;;;;;;;5052405;28;20318;-38
2023/05/30 04:35:00;;;;;;;;;;;;;;;;;;5051271;28;19958;-37
2023/05/30 04:37:27;;;;;;;;;;;;;;;;;;5052283;28;19934;-37
2023/05/30 04:39:55;;;;;;;;;;;;;;;;;;5052124;28;20012;-39
2023/05/30 04:42:23;;;;;;;;;;;;;;;;;;5052147;28;20262;-41
2023/05/30 04:44:49;;;;;;;;;;;;;;;;;;5052273;28;19916;-39
2023/05/30 04:47:16;;;;;;;;;;;;;;;;;;5052329;28;19913;-39
2023/05/30 04:49:42;;;;;;;;;;;;;;;;;;5052612;28;19991;-37
2023/05/30 04:52:08;;;;;;;;;;;;;;;;;;5050999;28;19915;-37
2023/05/30 04:54:34;;;;;;;;;;;;;;;;;;5052338;28;20353;-37
2023/05/30 04:57:00;;;;;;;;;;;;;;;;;;5052202;28;19915;-38
2023/05/30 04:59:26;;;;;;;;;;;;;;;;;;5050957;28;19905;-36
2023/05/30 05:01:52;;;;;;;;;;;;;;;;;;5052301;28;19908;-37
2023/05/30 05:04:18;;;;;;;;;;;;;;;;;;5052215;28;19905;-39
2023/05/30 05:06:44;;;;;;;;;;;;;;;;;;5052406;28;19913;-37
2023/05/30 05:09:10;;;;;;;;;;;;;;;;;;5052144;28;19916;-36
2023/05/30 05:11:36;;;;;;;;;;;;;;;;;;5052291;28;19913;-41
2023/05/30 05:14:02;;;;;;;;;;;;;;;;;;5052008;28;20415;-40
2023/05/30 05:16:28;;;;;;;;;;;;;;;;;;5052089;28;19909;-37
2023/05/30 05:18:54;;;;;;;;;;;;;;;;;;5052219;28;19909;-39
2023/05/30 05:21:20;;;;;;;;;;;;;;;;;;5052195;28;19946;-36
2023/05/30 05:23:46;;;;;;;;;;;;;;;;;;5052046;28;20360;-39
2023/05/30 05:26:12;;;;;;;;;;;;;;;;;;5052229;28;19913;-40
2023/05/30 05:28:38;;;;;;;;;;;;;;;;;;5052106;28;19909;-40
2023/05/30 05:31:04;;;;;;;;;;;;;;;;;;5051997;28;19951;-37
2023/05/30 05:33:29;;;;;;;;;;;;;;;;;;5051905;28;20334;-37
2023/05/30 05:35:55;;;;;;;;;;;;;;;;;;5051901;28;19931;-35
2023/05/30 05:38:21;;;;;;;;;;;;;;;;;;5051916;28;20010;-35
2023/05/30 05:40:47;;;;;;;;;;;;;;;;;;5051583;28;19971;-40
2023/05/30 05:43:13;;;;;;;;;;;;;;;;;;5051869;28;20330;-44
2023/05/30 05:45:39;;;;;;;;;;;;;;;;;;5052052;28;20392;-35
2023/05/30 05:48:05;;;;;;;;;;;;;;;;;;5055658;28;19916;-39
2023/05/30 05:50:31;;;;;;;;;;;;;;;;;;5055651;28;19956;-35
2023/05/30 05:52:57;;;;;;;;;;;;;;;;;;5055598;28;20374;-36
2023/05/30 05:55:23;;;;;;;;;;;;;;;;;;5055377;28;19913;-38
2023/05/30 05:57:48;;;;;;;;;;;;;;;;;;5055473;28;19919;-38
2023/05/30 06:00:15;;;;;;;;;;;;;;;;;;5055427;28;19916;-44
2023/05/30 06:02:41;;;;;;;;;;;;;;;;;;5055452;28;19913;-39
2023/05/30 06:05:07;;;;;;;;;;;;;;;;;;5055156;28;20406;-38
2023/05/30 06:07:33;;;;;;;;;;;;;;;;;;5055173;28;19917;-39
2023/05/30 06:09:58;;;;;;;;;;;;;;;;;;5055395;28;19954;-39
2023/05/30 06:12:24;;;;;;;;;;;;;;;;;;5055280;28;19966;-40
2023/05/30 06:14:50;;;;;;;;;;;;;;;;;;5055280;28;19913;-40
2023/05/30 06:17:16;;;;;;;;;;;;;;;;;;5055133;28;19916;-40
2023/05/30 06:19:42;;;;;;;;;;;;;;;;;;5053612;28;19908;-36
2023/05/30 06:22:08;;;;;;;;;;;;;;;;;;5055061;28;19909;-37
2023/05/30 06:24:34;;;;;;;;;;;;;;;;;;5054987;28;19936;-40
2023/05/30 06:27:00;;;;;;;;;;;;;;;;;;5054787;28;19971;-39
2023/05/30 06:29:27;;;;;;;;;;;;;;;;;;5054960;28;19909;-39
2023/05/30 06:31:54;;;;;;;;;;;;;;;;;;5054764;28;19909;-40
2023/05/30 06:34:19;;;;;;;;;;;;;;;;;;5054670;28;19909;-38
2023/05/30 06:36:45;;;;;;;;;;;;;;;;;;5054880;28;19909;-38
2023/05/30 06:39:15;;;;;;;;;;;;;;;;;;5054564;28;19920;-37
2023/05/30 06:41:41;;;;;;;;;;;;;;;;;;5054458;28;20432;-38
2023/05/30 06:44:06;;;;;;;;;;;;;;;;;;5054378;28;19936;-36
2023/05/30 06:46:32;;;;;;;;;;;;;;;;;;5054457;28;20356;-40
2023/05/30 06:48:58;;;;;;;;;;;;;;;;;;5054397;28;19908;-38
2023/05/30 06:51:24;;;;;;;;;;;;;;;;;;5054233;28;19951;-39
2023/05/30 06:53:50;;;;;;;;;;;;;;;;;;5054424;28;20307;-38
2023/05/30 06:56:16;;;;;;;;;;;;;;;;;;5054435;28;19916;-36
2023/05/30 06:58:42;;;;;;;;;;;;;;;;;;5052346;28;19915;-38
2023/05/30 07:01:08;;;;;;;;;;;;;;;;;;5054212;28;19916;-39
2023/05/30 07:03:35;;;;;;;;;;;;;;;;;;5054219;28;19909;-38
2023/05/30 07:06:01;;;;;;;;;;;;;;;;;;5052804;28;20296;-38
2023/05/30 07:08:27;;;;;;;;;;;;;;;;;;5054406;28;19909;-38
2023/05/30 07:10:53;;;;;;;;;;;;;;;;;;5054130;28;20003;-35
2023/05/30 07:13:19;;;;;;;;;;;;;;;;;;5054010;28;19909;-36
2023/05/30 07:15:44;;;;;;;;;;;;;;;;;;5053774;28;19919;-39
2023/05/30 07:18:10;;;;;;;;;;;;;;;;;;5053444;28;20381;-39
2023/05/30 07:20:36;;;;;;;;;;;;;;;;;;5053300;28;19916;-40
2023/05/30 07:23:02;;;;;;;;;;;;;;;;;;5053948;28;20227;-37
2023/05/30 07:25:28;;;;;;;;;;;;;;;;;;5053874;28;19962;-39
2023/05/30 07:27:54;;;;;;;;;;;;;;;;;;5052366;28;19995;-39
2023/05/30 07:30:20;;;;;;;;;;;;;;;;;;5051872;28;19931;-42
2023/05/30 07:32:46;;;;;;;;;;;;;;;;;;5051806;28;19905;-39
2023/05/30 07:35:12;;;;;;;;;;;;;;;;;;5053011;28;19955;-40
2023/05/30 07:37:38;;;;;;;;;;;;;;;;;;5053098;28;19905;-40
2023/05/30 07:40:07;;;;;;;;;;;;;;;;;;5052514;28;20452;-37
2023/05/30 07:42:32;;;;;;;;;;;;;;;;;;5052616;28;19916;-40
2023/05/30 07:44:58;;;;;;;;;;;;;;;;;;5053056;28;20357;-39
2023/05/30 07:47:24;;;;;;;;;;;;;;;;;;5053409;28;20389;-39
2023/05/30 07:49:50;;;;;;;;;;;;;;;;;;5053226;28;20062;-40
2023/05/30 07:52:16;;;;;;;;;;;;;;;;;;5052182;28;19909;-39
2023/05/30 07:54:42;;;;;;;;;;;;;;;;;;5053347;28;19916;-38
2023/05/30 07:57:12;;;;;;;;;;;;;;;;;;5053171;28;19909;-40
2023/05/30 07:59:38;;;;;;;;;;;;;;;;;;5053090;28;19908;-39
2023/05/30 08:02:04;;;;;;;;;;;;;;;;;;5053563;28;20250;-38
2023/05/30 08:04:30;;;;;;;;;;;;;;;;;;5053261;28;19916;-39
2023/05/30 08:06:56;;;;;;;;;;;;;;;;;;5052833;28;19913;-39
2023/05/30 08:09:21;;;;;;;;;;;;;;;;;;5052034;28;19952;-37
2023/05/30 08:11:47;;;;;;;;;;;;;;;;;;5052953;28;20483;-39
2023/05/30 08:14:13;;;;;;;;;;;;;;;;;;5052774;28;19955;-41
2023/05/30 08:16:39;;;;;;;;;;;;;;;;;;5052971;28;19912;-40
2023/05/30 08:19:05;;;;;;;;;;;;;;;;;;5052886;28;19967;-38
2023/05/30 08:21:31;;;;;;;;;;;;;;;;;;5052647;28;19909;-38
2023/05/30 08:23:57;;;;;;;;;;;;;;;;;;5051481;28;19909;-39
2023/05/30 08:26:24;;;;;;;;;;;;;;;;;;5052556;28;20004;-40
2023/05/30 08:28:51;;;;;;;;;;;;;;;;;;5052630;28;19978;-39
2023/05/30 08:31:18;;;;;;;;;;;;;;;;;;5052565;28;20328;-40
2023/05/30 08:33:45;;;;;;;;;;;;;;;;;;5052466;28;19909;-39
2023/05/30 08:36:21;;;;;;;;;;;;;;;;;;5053049;28;19952;-38
2023/05/30 08:38:53;;;;;;;;;;;;;;;;;;5053359;28;19909;-29
2023/05/30 08:41:19;;;;;;;;;;;;;;;;;;5053036;28;19925;-31
2023/05/30 08:43:45;;;;;;;;;;;;;;;;;;5052327;28;19987;-28
2023/05/30 08:46:11;;;;;;;;;;;;;;;;;;5053187;28;19979;-29
2023/05/30 08:48:38;;;;;;;;;;;;;;;;;;5053226;28;19908;-33
2023/05/30 08:51:04;;;;;;;;;;;;;;;;;;5053579;28;19968;-32
2023/05/30 08:53:29;;;;;;;;;;;;;;;;;;5053219;28;19932;-29
2023/05/30 08:55:55;;;;;;;;;;;;;;;;;;5053432;28;19959;-30
2023/05/30 08:58:22;;;;;;;;;;;;;;;;;;5053319;28;19916;-30
2023/05/30 09:00:48;;;;;;;;;;;;;;;;;;5053153;28;20361;-30
2023/05/30 09:03:14;;;;;;;;;;;;;;;;;;5053137;28;19955;-30
2023/05/30 09:05:40;;;;;;;;;;;;;;;;;;5053260;28;19927;-34
2023/05/30 09:08:07;;;;;;;;;;;;;;;;;;5053106;28;19921;-33
2023/05/30 09:10:33;;;;;;;;;;;;;;;;;;5053073;28;19912;-30
2023/05/30 09:12:59;;;;;;;;;;;;;;;;;;5053257;28;19909;-31
2023/05/30 09:15:25;;;;;;;;;;;;;;;;;;5053132;28;19948;-30
2023/05/30 09:17:51;;;;;;;;;;;;;;;;;;5053108;28;19920;-30
2023/05/30 09:20:17;;;;;;;;;;;;;;;;;;5053089;28;19915;-30
2023/05/30 09:22:43;;;;;;;;;;;;;;;;;;5057015;28;19995;-30
2023/05/30 09:25:09;;;;;;;;;;;;;;;;;;5055760;28;20388;-31
2023/05/30 09:27:35;;;;;;;;;;;;;;;;;;5057183;28;19913;-29
2023/05/30 09:30:01;;;;;;;;;;;;;;;;;;5057139;28;19912;-29
2023/05/30 09:32:28;;;;;;;;;;;;;;;;;;5057040;28;19992;-30
2023/05/30 09:34:55;;;;;;;;;;;;;;;;;;5056847;28;20369;-29
2023/05/30 09:37:21;;;;;;;;;;;;;;;;;;5056913;28;19909;-29
2023/05/30 09:39:47;;;;;;;;;;;;;;;;;;5056719;28;20037;-29
2023/05/30 09:42:13;;;;;;;;;;;;;;;;;;5056747;28;19913;-31
2023/05/30 09:44:39;;;;;;;;;;;;;;;;;;5056785;28;20001;-31
2023/05/30 09:47:05;;;;;;;;;;;;;;;;;;5056627;28;19963;-29
2023/05/30 09:49:31;;;;;;;;;;;;;;;;;;5056478;28;19963;-32
2023/05/30 09:51:57;;;;;;;;;;;;;;;;;;5056606;28;19909;-31
2023/05/30 09:54:22;;;;;;;;;;;;;;;;;;5056546;28;19909;-28
2023/05/30 09:56:48;;;;;;;;;;;;;;;;;;5056142;28;19913;-30
2023/05/30 09:59:14;;;;;;;;;;;;;;;;;;5056533;28;20000;-30
2023/05/30 10:01:40;;;;;;;;;;;;;;;;;;5056275;28;20423;-32
2023/05/30 10:04:06;;;;;;;;;;;;;;;;;;5056305;28;19955;-30
2023/05/30 10:06:33;;;;;;;;;;;;;;;;;;5056277;28;19962;-31
2023/05/30 10:08:59;;;;;;;;;;;;;;;;;;5056451;28;19920;-30
2023/05/30 10:11:25;;;;;;;;;;;;;;;;;;5056306;28;19909;-29
2023/05/30 10:13:51;;;;;;;;;;;;;;;;;;5056071;28;19909;-31
2023/05/30 10:16:17;;;;;;;;;;;;;;;;;;5056228;28;19908;-29
2023/05/30 10:18:43;;;;;;;;;;;;;;;;;;5056202;28;19909;-29
2023/05/30 10:21:09;;;;;;;;;;;;;;;;;;5056127;28;20358;-29
2023/05/30 10:23:35;;;;;;;;;;;;;;;;;;5054858;28;19909;-31
2023/05/30 10:26:01;;;;;;;;;;;;;;;;;;5055965;28;20327;-29
2023/05/30 10:28:28;;;;;;;;;;;;;;;;;;5056089;28;19920;-29
2023/05/30 10:30:54;;;;;;;;;;;;;;;;;;5055759;28;19916;-31
2023/05/30 10:33:20;;;;;;;;;;;;;;;;;;5054687;28;19913;-32
2023/05/30 10:35:46;;;;;;;;;;;;;;;;;;5055811;28;19915;-43
2023/05/30 10:38:12;;;;;;;;;;;;;;;;;;5055729;28;19915;-38
2023/05/30 10:40:38;;;;;;;;;;;;;;;;;;5054284;28;19920;-30
2023/05/30 10:43:04;;;;;;;;;;;;;;;;;;5055812;28;19913;-29
2023/05/30 10:45:30;;;;;;;;;;;;;;;;;;5055551;28;19995;-29
2023/05/30 10:47:56;;;;;;;;;;;;;;;;;;5055561;28;20313;-30
2023/05/30 10:50:24;;;;;;;;;;;;;;;;;;5055807;28;19916;-30
2023/05/30 10:52:50;;;;;;;;;;;;;;;;;;5055498;28;20457;-30
2023/05/30 10:55:16;;;;;;;;;;;;;;;;;;5055538;28;19948;-29
2023/05/30 10:57:42;;;;;;;;;;;;;;;;;;5055420;28;20273;-30
2023/05/30 11:00:10;;;;;;;;;;;;;;;;;;5055430;28;19963;-30
2023/05/30 11:02:36;;;;;;;;;;;;;;;;;;5055471;28;19916;-29
2023/05/30 11:05:01;;;;;;;;;;;;;;;;;;5055145;28;19909;-34
2023/05/30 11:07:27;;;;;;;;;;;;;;;;;;5055130;28;19912;-30
2023/05/30 11:09:53;;;;;;;;;;;;;;;;;;5055550;28;20533;-30
2023/05/30 11:12:19;;;;;;;;;;;;;;;;;;5055008;28;19909;-29
2023/05/30 11:14:45;;;;;;;;;;;;;;;;;;5053731;28;19916;-29
2023/05/30 11:17:12;;;;;;;;;;;;;;;;;;5054986;28;19987;-30
2023/05/30 11:19:38;;;;;;;;;;;;;;;;;;5054929;28;20346;-29
2023/05/30 11:22:05;;;;;;;;;;;;;;;;;;5054930;28;19916;-33
2023/05/30 11:24:30;;;;;;;;;;;;;;;;;;5055020;28;20372;-33
2023/05/30 11:26:57;;;;;;;;;;;;;;;;;;5054806;28;19916;-28
2023/05/30 11:29:22;;;;;;;;;;;;;;;;;;5054883;28;20435;-29
2023/05/30 11:31:48;;;;;;;;;;;;;;;;;;5054829;28;20008;-28
2023/05/30 11:34:14;;;;;;;;;;;;;;;;;;5054575;28;20369;-31
2023/05/30 11:36:40;;;;;;;;;;;;;;;;;;5054475;28;19913;-33
2023/05/30 11:39:06;;;;;;;;;;;;;;;;;;5054301;28;19920;-29
2023/05/30 11:41:32;;;;;;;;;;;;;;;;;;5054661;28;19916;-29
2023/05/30 11:43:58;;;;;;;;;;;;;;;;;;5054182;28;19948;-29
2023/05/30 11:46:25;;;;;;;;;;;;;;;;;;5054459;28;20360;-32
2023/05/30 11:48:52;;;;;;;;;;;;;;;;;;5054708;28;19925;-30
2023/05/30 11:51:17;;;;;;;;;;;;;;;;;;5054313;28;19992;-29
2023/05/30 11:53:43;;;;;;;;;;;;;;;;;;5054133;28;20388;-29
2023/05/30 11:56:10;;;;;;;;;;;;;;;;;;5054146;28;19916;-28
2023/05/30 11:58:36;;;;;;;;;;;;;;;;;;5054381;28;20380;-40
2023/05/30 12:01:02;;;;;;;;;;;;;;;;;;5053115;28;19909;-41
2023/05/30 12:03:28;;;;;;;;;;;;;;;;;;5052892;28;19908;-42
2023/05/30 12:05:54;;;;;;;;;;;;;;;;;;5053116;28;20000;-41
2023/05/30 12:08:21;;;;;;;;;;;;;;;;;;5052998;28;19921;-38
2023/05/30 12:10:47;;;;;;;;;;;;;;;;;;5052915;28;19913;-39
2023/05/30 12:13:12;;;;;;;;;;;;;;;;;;5052699;28;19909;-41
2023/05/30 12:15:38;;;;;;;;;;;;;;;;;;5052694;28;19916;-40
2023/05/30 12:18:04;;;;;;;;;;;;;;;;;;5052574;28;20282;-41
2023/05/30 12:20:30;;;;;;;;;;;;;;;;;;5052683;28;20002;-40
2023/05/30 12:22:56;;;;;;;;;;;;;;;;;;5052546;28;20269;-40
2023/05/30 12:25:22;;;;;;;;;;;;;;;;;;5052610;28;19908;-41
2023/05/30 12:27:48;;;;;;;;;;;;;;;;;;5052612;28;19917;-41
2023/05/30 12:30:14;;;;;;;;;;;;;;;;;;5052476;28;19909;-40
2023/05/30 12:32:39;;;;;;;;;;;;;;;;;;5052457;28;19905;-41
2023/05/30 12:35:05;;;;;;;;;;;;;;;;;;5052427;28;20344;-40
2023/05/30 12:37:31;;;;;;;;;;;;;;;;;;5052431;28;19905;-40
2023/05/30 12:39:57;;;;;;;;;;;;;;;;;;5052092;28;19921;-39
2023/05/30 12:42:23;;;;;;;;;;;;;;;;;;5052389;28;20354;-42
2023/05/30 12:44:49;;;;;;;;;;;;;;;;;;5052133;28;19916;-39
2023/05/30 12:47:15;;;;;;;;;;;;;;;;;;5052249;28;19913;-41
2023/05/30 12:49:41;;;;;;;;;;;;;;;;;;5052125;28;19996;-41
2023/05/30 12:52:07;;;;;;;;;;;;;;;;;;5052166;28;20004;-39
2023/05/30 12:54:33;;;;;;;;;;;;;;;;;;5052224;28;19909;-42
2023/05/30 12:56:59;;;;;;;;;;;;;;;;;;5051865;28;20584;-41
2023/05/30 12:59:25;;;;;;;;;;;;;;;;;;5052038;28;19970;-41
2023/05/30 13:01:51;;;;;;;;;;;;;;;;;;5052071;28;20007;-40
2023/05/30 13:04:17;;;;;;;;;;;;;;;;;;5052129;28;19995;-39
2023/05/30 13:06:43;;;;;;;;;;;;;;;;;;5052001;28;19920;-41
2023/05/30 13:09:09;;;;;;;;;;;;;;;;;;5052088;28;19916;-40
2023/05/30 13:11:35;;;;;;;;;;;;;;;;;;5052003;28;19993;-41
2023/05/30 13:14:01;;;;;;;;;;;;;;;;;;5052088;28;19956;-41
2023/05/30 13:16:27;;;;;;;;;;;;;;;;;;5051861;28;19909;-39
2023/05/30 13:18:53;;;;;;;;;;;;;;;;;;5051788;28;19908;-41
2023/05/30 13:21:19;;;;;;;;;;;;;;;;;;5052005;28;19909;-40
2023/05/30 13:23:45;;;;;;;;;;;;;;;;;;5051826;28;19908;-39
2023/05/30 13:26:11;;;;;;;;;;;;;;;;;;5051861;28;19913;-42
2023/05/30 13:28:36;;;;;;;;;;;;;;;;;;5051657;28;19916;-39
2023/05/30 13:31:03;;;;;;;;;;;;;;;;;;5051775;28;20269;-41
2023/05/30 13:33:29;;;;;;;;;;;;;;;;;;5051716;28;19955;-41
2023/05/30 13:35:55;;;;;;;;;;;;;;;;;;5051791;28;20003;-39
2023/05/30 13:38:21;;;;;;;;;;;;;;;;;;5051676;28;20334;-40
2023/05/30 13:40:47;;;;;;;;;;;;;;;;;;5051505;28;20392;-39
2023/05/30 13:43:13;;;;;;;;;;;;;;;;;;5051787;28;19913;-42
2023/05/30 13:45:39;;;;;;;;;;;;;;;;;;5051858;28;19966;-40
2023/05/30 13:48:05;;;;;;;;;;;;;;;;;;5051804;28;19913;-40
2023/05/30 13:50:31;;;;;;;;;;;;;;;;;;5051618;28;19959;-42
2023/05/30 13:52:57;;;;;;;;;;;;;;;;;;5050391;28;19909;-38
2023/05/30 13:55:23;;;;;;;;;;;;;;;;;;5050230;28;20004;-41
2023/05/30 13:57:49;;;;;;;;;;;;;;;;;;5051565;28;20003;-42
2023/05/30 14:00:15;;;;;;;;;;;;;;;;;;5051343;28;19909;-39
2023/05/30 14:02:40;;;;;;;;;;;;;;;;;;5051448;28;19966;-41
2023/05/30 14:05:07;;;;;;;;;;;;;;;;;;5051383;28;19909;-38
2023/05/30 14:07:32;;;;;;;;;;;;;;;;;;5052990;28;19920;-38
2023/05/30 14:09:58;;;;;;;;;;;;;;;;;;5055172;28;19909;-39
2023/05/30 14:12:25;;;;;;;;;;;;;;;;;;5055014;28;19909;-39
2023/05/30 14:14:51;;;;;;;;;;;;;;;;;;5054929;28;19913;-39
2023/05/30 14:17:18;;;;;;;;;;;;;;;;;;5054933;28;19915;-42
2023/05/30 14:19:44;;;;;;;;;;;;;;;;;;5055001;28;20412;-42
2023/05/30 14:22:10;;;;;;;;;;;;;;;;;;5054858;28;19944;-38
2023/05/30 14:24:36;;;;;;;;;;;;;;;;;;5054784;28;20373;-39
2023/05/30 14:27:02;;;;;;;;;;;;;;;;;;5054699;28;19913;-41
2023/05/30 14:29:28;;;;;;;;;;;;;;;;;;5054904;28;20420;-42
2023/05/30 14:31:54;;;;;;;;;;;;;;;;;;5054770;28;19913;-39
2023/05/30 14:34:20;;;;;;;;;;;;;;;;;;5054595;28;19909;-39
2023/05/30 14:36:46;;;;;;;;;;;;;;;;;;5054658;28;19913;-40
2023/05/30 14:39:11;;;;;;;;;;;;;;;;;;5054693;28;20360;-40
2023/05/30 14:41:37;;;;;;;;;;;;;;;;;;5054822;28;19917;-40
2023/05/30 14:44:04;;;;;;;;;;;;;;;;;;5054301;28;20289;-40
2023/05/30 14:46:30;;;;;;;;;;;;;;;;;;5054931;28;19909;-29
2023/05/30 14:48:56;;;;;;;;;;;;;;;;;;5054389;28;19909;-29
2023/05/30 14:51:22;;;;;;;;;;;;;;;;;;5055590;28;20263;-31
2023/05/30 14:53:50;;;;;;;;;;;;;;;;;;5055387;28;19912;-30
2023/05/30 14:56:15;;;;;;;;;;;;;;;;;;5055394;28;19962;-30
2023/05/30 14:58:41;;;;;;;;;;;;;;;;;;5055321;28;19908;-29
2023/05/30 15:01:08;;;;;;;;;;;;;;;;;;5055339;28;19955;-30
2023/05/30 15:03:34;;;;;;;;;;;;;;;;;;5055272;28;19958;-31
2023/05/30 15:05:59;;;;;;;;;;;;;;;;;;5055290;28;20266;-28
2023/05/30 15:08:25;;;;;;;;;;;;;;;;;;5055020;28;19919;-30
2023/05/30 15:10:51;;;;;;;;;;;;;;;;;;5055161;28;20023;-31
2023/05/30 15:13:17;;;;;;;;;;;;;;;;;;5055124;28;19908;-31
2023/05/30 15:15:43;;;;;;;;;;;;;;;;;;5055250;28;20415;-29
2023/05/30 15:18:09;;;;;;;;;;;;;;;;;;5054931;28;20365;-35
2023/05/30 15:20:35;;;;;;;;;;;;;;;;;;5054850;28;19923;-30
2023/05/30 15:23:01;;;;;;;;;;;;;;;;;;5055018;28;20323;-30
2023/05/30 15:25:27;;;;;;;;;;;;;;;;;;5054956;28;19909;-32
2023/05/30 15:27:52;;;;;;;;;;;;;;;;;;5054738;28;19959;-30
2023/05/30 15:30:18;;;;;;;;;;;;;;;;;;5054900;28;19913;-29
2023/05/30 15:32:44;;;;;;;;;;;;;;;;;;5054793;28;19915;-30
2023/05/30 15:35:10;;;;;;;;;;;;;;;;;;5054753;28;19912;-30
2023/05/30 15:37:36;;;;;;;;;;;;;;;;;;5054764;28;19908;-30
2023/05/30 15:40:02;;;;;;;;;;;;;;;;;;5054460;28;19927;-30
2023/05/30 15:42:28;;;;;;;;;;;;;;;;;;5054487;28;20258;-30
2023/05/30 15:44:54;;;;;;;;;;;;;;;;;;5054242;28;19935;-29
2023/05/30 15:47:20;;;;;;;;;;;;;;;;;;5054454;28;19967;-31
2023/05/30 15:49:46;;;;;;;;;;;;;;;;;;5054635;28;19948;-30
2023/05/30 15:52:12;;;;;;;;;;;;;;;;;;5054631;28;19908;-29
2023/05/30 15:54:38;;;;;;;;;;;;;;;;;;5054161;28;20043;-40
2023/05/30 15:57:03;;;;;;;;;;;;;;;;;;5053331;28;19954;-39
2023/05/30 15:59:29;;;;;;;;;;;;;;;;;;5053099;28;20320;-39
2023/05/30 16:01:55;;;;;;;;;;;;;;;;;;5053818;28;19915;-42
2023/05/30 16:04:21;;;;;;;;;;;;;;;;;;5052994;28;19939;-42
2023/05/30 16:06:47;;;;;;;;;;;;;;;;;;5053420;28;20381;-42
2023/05/30 16:09:13;;;;;;;;;;;;;;;;;;5053401;28;19952;-42
2023/05/30 16:11:39;;;;;;;;;;;;;;;;;;5053386;28;20337;-44
2023/05/30 16:14:06;;;;;;;;;;;;;;;;;;5053254;28;19913;-43
2023/05/30 16:16:31;;;;;;;;;;;;;;;;;;5053253;28;19995;-43
2023/05/30 16:18:57;;;;;;;;;;;;;;;;;;5053291;28;20362;-43
2023/05/30 16:21:23;;;;;;;;;;;;;;;;;;5053258;28;20673;-44
2023/05/30 16:23:49;;;;;;;;;;;;;;;;;;5053397;28;19955;-42
2023/05/30 16:26:15;;;;;;;;;;;;;;;;;;5053113;28;19904;-44
2023/05/30 16:28:41;;;;;;;;;;;;;;;;;;5051682;28;19924;-44
2023/05/30 16:31:07;;;;;;;;;;;;;;;;;;5052217;28;19951;-44
2023/05/30 16:33:35;;;;;;;;;;;;;;;;;;5052871;28;19909;-39
2023/05/30 16:36:01;;;;;;;;;;;;;;;;;;5052607;28;19913;-38
2023/05/30 16:38:26;;;;;;;;;;;;;;;;;;5052565;28;19909;-36